sensor_id;sensor_type;location;lat;lon;timestamp;pressure;altitude;pressure_sealevel;temperature;humidity
59168;BME280;44948;55.046;73.266;2023-04-20T00:00:17;101986.97;;;-5.93;55.79
59168;BME280;44948;55.046;73.266;2023-04-20T00:03:30;101990.28;;;-5.97;55.22
59168;BME280;44948;55.046;73.266;2023-04-20T00:06:38;101992.53;;;-6.09;55.65
59168;BME280;44948;55.046;73.266;2023-04-20T00:09:48;101989.09;;;-6.11;55.59
59168;BME280;44948;55.046;73.266;2023-04-20T00:12:51;101984.81;;;-6.12;55.78
59168;BME280;44948;55.046;73.266;2023-04-20T00:15:58;101989.91;;;-6.12;55.98
59168;BME280;44948;55.046;73.266;2023-04-20T00:19:02;101984.03;;;-6.08;55.78
59168;BME280;44948;55.046;73.266;2023-04-20T00:22:09;101990.88;;;-6.07;56.17
59168;BME280;44948;55.046;73.266;2023-04-20T00:25:22;101986.97;;;-5.93;56.58
59168;BME280;44948;55.046;73.266;2023-04-20T00:28:36;101989.91;;;-5.77;56.38
59168;BME280;44948;55.046;73.266;2023-04-20T00:31:39;101977.53;;;-5.59;55.49
59168;BME280;44948;55.046;73.266;2023-04-20T00:34:41;101985.00;;;-5.31;55.42
59168;BME280;44948;55.046;73.266;2023-04-20T00:37:46;101981.44;;;-4.97;55.28
59168;BME280;44948;55.046;73.266;2023-04-20T00:40:48;101974.53;;;-4.55;55.38
59168;BME280;44948;55.046;73.266;2023-04-20T00:43:54;101979.31;;;-4.27;54.71
59168;BME280;44948;55.046;73.266;2023-04-20T00:46:56;101970.22;;;-4.08;54.24
59168;BME280;44948;55.046;73.266;2023-04-20T00:50:00;101975.22;;;-3.61;54.60
59168;BME280;44948;55.046;73.266;2023-04-20T00:53:04;101980.78;;;-3.32;53.26
59168;BME280;44948;55.046;73.266;2023-04-20T00:56:13;101969.91;;;-3.13;52.73
59168;BME280;44948;55.046;73.266;2023-04-20T00:59:21;101969.34;;;-2.88;52.23
59168;BME280;44948;55.046;73.266;2023-04-20T01:02:24;101982.53;;;-2.57;51.72
59168;BME280;44948;55.046;73.266;2023-04-20T01:05:27;101987.00;;;-2.36;50.81
59168;BME280;44948;55.046;73.266;2023-04-20T01:08:30;101971.72;;;-2.21;50.43
59168;BME280;44948;55.046;73.266;2023-04-20T01:11:32;101975.44;;;-1.88;50.18
59168;BME280;44948;55.046;73.266;2023-04-20T01:14:36;101981.53;;;-1.76;49.56
59168;BME280;44948;55.046;73.266;2023-04-20T01:17:38;101975.63;;;-1.66;49.68
59168;BME280;44948;55.046;73.266;2023-04-20T01:20:41;101978.28;;;-1.50;48.91
59168;BME280;44948;55.046;73.266;2023-04-20T01:23:44;101971.47;;;-1.42;48.70
59168;BME280;44948;55.046;73.266;2023-04-20T01:26:47;101956.13;;;-1.21;48.70
59168;BME280;44948;55.046;73.266;2023-04-20T01:29:54;101975.06;;;-1.04;48.17
59168;BME280;44948;55.046;73.266;2023-04-20T01:32:57;101971.69;;;-0.96;48.14
59168;BME280;44948;55.046;73.266;2023-04-20T01:36:00;101976.00;;;-0.88;47.85
59168;BME280;44948;55.046;73.266;2023-04-20T01:39:05;101975.94;;;-1.02;47.76
59168;BME280;44948;55.046;73.266;2023-04-20T01:42:07;101977.69;;;-0.99;47.41
59168;BME280;44948;55.046;73.266;2023-04-20T01:45:16;101975.06;;;-1.01;48.37
59168;BME280;44948;55.046;73.266;2023-04-20T01:48:18;101975.97;;;-1.00;48.17
59168;BME280;44948;55.046;73.266;2023-04-20T01:51:22;101976.78;;;-1.09;48.64
59168;BME280;44948;55.046;73.266;2023-04-20T01:54:25;101970.78;;;-1.05;48.69
59168;BME280;44948;55.046;73.266;2023-04-20T01:57:27;101971.63;;;-1.03;48.83
59168;BME280;44948;55.046;73.266;2023-04-20T02:00:35;101976.78;;;-1.06;48.42
59168;BME280;44948;55.046;73.266;2023-04-20T02:03:38;101976.84;;;-0.96;48.80
59168;BME280;44948;55.046;73.266;2023-04-20T02:06:46;101968.28;;;-0.83;48.11
59168;BME280;44948;55.046;73.266;2023-04-20T02:09:53;101969.25;;;-0.45;48.07
59168;BME280;44948;55.046;73.266;2023-04-20T02:13:06;101966.69;;;-0.14;47.49
59168;BME280;44948;55.046;73.266;2023-04-20T02:16:18;101967.56;;;0.20;47.31
59168;BME280;44948;55.046;73.266;2023-04-20T02:19:22;101968.41;;;0.36;46.26
59168;BME280;44948;55.046;73.266;2023-04-20T02:22:25;101957.94;;;0.78;46.57
59168;BME280;44948;55.046;73.266;2023-04-20T02:25:27;101962.13;;;1.07;45.97
59168;BME280;44948;55.046;73.266;2023-04-20T02:28:30;101957.75;;;1.18;45.36
59168;BME280;44948;55.046;73.266;2023-04-20T02:31:33;101974.78;;;1.57;45.64
59168;BME280;44948;55.046;73.266;2023-04-20T02:34:35;101960.81;;;1.80;44.31
59168;BME280;44948;55.046;73.266;2023-04-20T02:37:48;101964.19;;;1.91;44.25
59168;BME280;44948;55.046;73.266;2023-04-20T02:40:51;101963.03;;;2.25;44.36
59168;BME280;44948;55.046;73.266;2023-04-20T02:43:53;101953.19;;;2.59;43.98
59168;BME280;44948;55.046;73.266;2023-04-20T02:46:56;101943.13;;;3.06;43.64
59168;BME280;44948;55.046;73.266;2023-04-20T02:50:10;101947.28;;;3.16;42.25
59168;BME280;44948;55.046;73.266;2023-04-20T02:53:30;101947.97;;;3.30;42.34
59168;BME280;44948;55.046;73.266;2023-04-20T02:56:47;101906.16;;;3.50;41.68
59168;BME280;44948;55.046;73.266;2023-04-20T02:59:50;101943.06;;;3.69;41.19
59168;BME280;44948;55.046;73.266;2023-04-20T03:02:58;101939.50;;;3.76;41.01
59168;BME280;44948;55.046;73.266;2023-04-20T03:06:02;101939.06;;;4.02;41.02
59168;BME280;44948;55.046;73.266;2023-04-20T03:09:09;101935.63;;;4.00;40.56
59168;BME280;44948;55.046;73.266;2023-04-20T03:12:40;101941.34;;;4.20;40.66
59168;BME280;44948;55.046;73.266;2023-04-20T03:16:07;101934.19;;;4.33;40.49
59168;BME280;44948;55.046;73.266;2023-04-20T03:19:16;101940.56;;;4.63;40.15
59168;BME280;44948;55.046;73.266;2023-04-20T03:22:18;101939.38;;;4.79;40.67
59168;BME280;44948;55.046;73.266;2023-04-20T03:25:24;101942.72;;;5.27;40.18
59168;BME280;44948;55.046;73.266;2023-04-20T03:28:32;101933.75;;;5.76;39.57
59168;BME280;44948;55.046;73.266;2023-04-20T03:31:35;101925.25;;;6.04;39.12
59168;BME280;44948;55.046;73.266;2023-04-20T03:34:49;101927.50;;;6.17;38.77
59168;BME280;44948;55.046;73.266;2023-04-20T03:38:02;101936.22;;;6.16;38.78
59168;BME280;44948;55.046;73.266;2023-04-20T03:41:05;101925.31;;;6.35;38.72
59168;BME280;44948;55.046;73.266;2023-04-20T03:44:14;101930.47;;;6.36;37.84
59168;BME280;44948;55.046;73.266;2023-04-20T03:47:17;101934.97;;;5.97;37.44
59168;BME280;44948;55.046;73.266;2023-04-20T03:50:19;101934.75;;;6.06;37.93
59168;BME280;44948;55.046;73.266;2023-04-20T03:53:24;101926.72;;;6.46;38.11
59168;BME280;44948;55.046;73.266;2023-04-20T03:56:27;101929.91;;;6.58;36.97
59168;BME280;44948;55.046;73.266;2023-04-20T03:59:30;101921.53;;;7.05;37.21
59168;BME280;44948;55.046;73.266;2023-04-20T04:02:45;101918.88;;;7.36;36.21
59168;BME280;44948;55.046;73.266;2023-04-20T04:05:49;101916.91;;;6.85;35.08
59168;BME280;44948;55.046;73.266;2023-04-20T04:08:57;101909.50;;;7.01;35.02
59168;BME280;44948;55.046;73.266;2023-04-20T04:12:02;101910.47;;;7.55;34.87
59168;BME280;44948;55.046;73.266;2023-04-20T04:15:11;101911.06;;;7.36;34.47
59168;BME280;44948;55.046;73.266;2023-04-20T04:18:22;101901.41;;;7.38;34.31
59168;BME280;44948;55.046;73.266;2023-04-20T04:21:26;101909.69;;;7.53;33.71
59168;BME280;44948;55.046;73.266;2023-04-20T04:24:38;101909.34;;;7.35;33.02
59168;BME280;44948;55.046;73.266;2023-04-20T04:27:44;101907.22;;;7.48;32.92
59168;BME280;44948;55.046;73.266;2023-04-20T04:30:48;101905.97;;;7.60;32.66
59168;BME280;44948;55.046;73.266;2023-04-20T04:33:57;101900.66;;;7.63;32.35
59168;BME280;44948;55.046;73.266;2023-04-20T04:37:15;101905.16;;;7.84;33.45
59168;BME280;44948;55.046;73.266;2023-04-20T04:40:23;101897.09;;;8.17;32.79
59168;BME280;44948;55.046;73.266;2023-04-20T04:43:28;101893.81;;;8.35;32.23
59168;BME280;44948;55.046;73.266;2023-04-20T04:46:54;101881.09;;;8.26;31.45
59168;BME280;44948;55.046;73.266;2023-04-20T04:49:59;101880.84;;;8.32;31.42
59168;BME280;44948;55.046;73.266;2023-04-20T04:53:03;101879.13;;;8.08;29.14
59168;BME280;44948;55.046;73.266;2023-04-20T04:56:06;101878.94;;;7.87;30.19
59168;BME280;44948;55.046;73.266;2023-04-20T04:59:09;101875.50;;;8.12;29.87
59168;BME280;44948;55.046;73.266;2023-04-20T05:02:11;101869.88;;;8.22;29.22
59168;BME280;44948;55.046;73.266;2023-04-20T05:05:13;101858.59;;;8.45;29.81
59168;BME280;44948;55.046;73.266;2023-04-20T05:08:16;101864.94;;;8.85;28.92
59168;BME280;44948;55.046;73.266;2023-04-20T05:11:18;101865.31;;;9.21;28.58
59168;BME280;44948;55.046;73.266;2023-04-20T05:14:31;101854.81;;;9.85;28.65
59168;BME280;44948;55.046;73.266;2023-04-20T05:17:33;101850.81;;;9.97;27.43
59168;BME280;44948;55.046;73.266;2023-04-20T05:20:36;101849.63;;;8.98;26.90
59168;BME280;44948;55.046;73.266;2023-04-20T05:23:43;101848.84;;;9.17;27.70
59168;BME280;44948;55.046;73.266;2023-04-20T05:26:45;101844.66;;;9.98;27.31
59168;BME280;44948;55.046;73.266;2023-04-20T05:29:53;101833.84;;;10.24;25.81
59168;BME280;44948;55.046;73.266;2023-04-20T05:32:55;101842.81;;;9.37;26.28
59168;BME280;44948;55.046;73.266;2023-04-20T05:35:57;101839.97;;;9.21;26.65
59168;BME280;44948;55.046;73.266;2023-04-20T05:39:00;101831.16;;;9.87;26.91
59168;BME280;44948;55.046;73.266;2023-04-20T05:42:02;101832.06;;;9.65;26.20
59168;BME280;44948;55.046;73.266;2023-04-20T05:45:05;101815.63;;;9.62;26.64
59168;BME280;44948;55.046;73.266;2023-04-20T05:48:07;101819.19;;;9.39;26.54
59168;BME280;44948;55.046;73.266;2023-04-20T05:51:17;101825.13;;;9.64;26.01
59168;BME280;44948;55.046;73.266;2023-04-20T05:54:25;101820.00;;;10.02;26.19
59168;BME280;44948;55.046;73.266;2023-04-20T05:57:29;101819.56;;;9.92;25.19
59168;BME280;44948;55.046;73.266;2023-04-20T06:00:31;101820.72;;;9.22;26.06
59168;BME280;44948;55.046;73.266;2023-04-20T06:03:39;101809.44;;;9.20;26.71
59168;BME280;44948;55.046;73.266;2023-04-20T06:06:42;101801.41;;;9.88;26.51
59168;BME280;44948;55.046;73.266;2023-04-20T06:09:44;101812.16;;;9.81;25.60
59168;BME280;44948;55.046;73.266;2023-04-20T06:12:57;101793.47;;;10.09;25.87
59168;BME280;44948;55.046;73.266;2023-04-20T06:15:59;101803.47;;;10.58;25.46
59168;BME280;44948;55.046;73.266;2023-04-20T06:19:02;101792.22;;;9.98;25.87
59168;BME280;44948;55.046;73.266;2023-04-20T06:22:08;101786.03;;;10.57;25.69
59168;BME280;44948;55.046;73.266;2023-04-20T06:25:17;101799.38;;;9.94;25.84
59168;BME280;44948;55.046;73.266;2023-04-20T06:28:20;101766.56;;;9.65;26.35
59168;BME280;44948;55.046;73.266;2023-04-20T06:31:22;101789.56;;;10.18;25.81
59168;BME280;44948;55.046;73.266;2023-04-20T06:34:24;101781.53;;;10.79;25.52
59168;BME280;44948;55.046;73.266;2023-04-20T06:37:37;101782.78;;;10.70;25.18
59168;BME280;44948;55.046;73.266;2023-04-20T06:40:46;101789.59;;;10.37;25.16
59168;BME280;44948;55.046;73.266;2023-04-20T06:43:48;101781.28;;;10.65;24.35
59168;BME280;44948;55.046;73.266;2023-04-20T06:46:53;101774.56;;;10.59;24.80
59168;BME280;44948;55.046;73.266;2023-04-20T06:49:57;101773.28;;;10.11;24.84
59168;BME280;44948;55.046;73.266;2023-04-20T06:53:02;101775.81;;;10.13;24.55
59168;BME280;44948;55.046;73.266;2023-04-20T06:56:06;101761.91;;;9.92;25.40
59168;BME280;44948;55.046;73.266;2023-04-20T06:59:08;101760.47;;;9.85;25.68
59168;BME280;44948;55.046;73.266;2023-04-20T07:02:10;101763.72;;;10.10;26.00
59168;BME280;44948;55.046;73.266;2023-04-20T07:05:13;101754.00;;;10.50;25.29
59168;BME280;44948;55.046;73.266;2023-04-20T07:08:21;101750.69;;;9.89;24.81
59168;BME280;44948;55.046;73.266;2023-04-20T07:11:33;101757.63;;;9.90;26.01
59168;BME280;44948;55.046;73.266;2023-04-20T07:14:36;101760.66;;;10.76;25.37
59168;BME280;44948;55.046;73.266;2023-04-20T07:17:38;101747.13;;;11.02;24.59
59168;BME280;44948;55.046;73.266;2023-04-20T07:20:41;101753.81;;;11.10;24.41
59168;BME280;44948;55.046;73.266;2023-04-20T07:23:43;101732.00;;;11.25;24.50
59168;BME280;44948;55.046;73.266;2023-04-20T07:26:46;101735.50;;;10.53;24.92
59168;BME280;44948;55.046;73.266;2023-04-20T07:29:48;101738.38;;;10.66;24.76
59168;BME280;44948;55.046;73.266;2023-04-20T07:32:51;101738.41;;;10.28;25.06
59168;BME280;44948;55.046;73.266;2023-04-20T07:35:53;101730.88;;;10.02;25.60
59168;BME280;44948;55.046;73.266;2023-04-20T07:38:55;101730.88;;;10.02;25.60
59168;BME280;44948;55.046;73.266;2023-04-20T07:42:03;101730.88;;;10.02;25.60
59168;BME280;44948;55.046;73.266;2023-04-20T07:45:11;101720.88;;;9.52;26.16
59168;BME280;44948;55.046;73.266;2023-04-20T07:48:14;60074.63;;;-145.93;100.00
59168;BME280;44948;55.046;73.266;2023-04-20T07:51:19;60074.63;;;-145.93;100.00
59168;BME280;44948;55.046;73.266;2023-04-20T07:54:21;60074.63;;;-145.93;100.00
59168;BME280;44948;55.046;73.266;2023-04-20T07:57:27;60074.63;;;-145.93;100.00
59168;BME280;44948;55.046;73.266;2023-04-20T08:00:30;60074.63;;;-145.93;100.00
59168;BME280;44948;55.046;73.266;2023-04-20T08:03:32;101707.50;;;9.38;26.96
59168;BME280;44948;55.046;73.266;2023-04-20T08:06:35;101709.69;;;9.28;26.43
59168;BME280;44948;55.046;73.266;2023-04-20T08:09:38;101708.69;;;9.51;27.31
59168;BME280;44948;55.046;73.266;2023-04-20T08:12:44;101698.69;;;9.61;27.70
59168;BME280;44948;55.046;73.266;2023-04-20T08:15:48;101696.19;;;9.97;26.40
59168;BME280;44948;55.046;73.266;2023-04-20T08:18:50;101682.22;;;10.15;26.52
59168;BME280;44948;55.046;73.266;2023-04-20T08:21:52;101694.47;;;9.96;26.71
59168;BME280;44948;55.046;73.266;2023-04-20T08:25:05;101682.38;;;9.54;26.54
59168;BME280;44948;55.046;73.266;2023-04-20T08:28:08;101686.53;;;9.58;27.28
59168;BME280;44948;55.046;73.266;2023-04-20T08:31:11;101681.31;;;9.58;27.38
59168;BME280;44948;55.046;73.266;2023-04-20T08:34:15;101681.44;;;9.75;26.90
59168;BME280;44948;55.046;73.266;2023-04-20T08:37:17;101665.13;;;9.88;26.97
59168;BME280;44948;55.046;73.266;2023-04-20T08:40:20;101677.84;;;9.58;27.29
59168;BME280;44948;55.046;73.266;2023-04-20T08:43:25;101671.19;;;9.50;26.58
59168;BME280;44948;55.046;73.266;2023-04-20T08:46:27;101663.91;;;9.16;26.79
59168;BME280;44948;55.046;73.266;2023-04-20T08:49:41;101672.53;;;9.18;26.58
59168;BME280;44948;55.046;73.266;2023-04-20T08:52:47;101670.47;;;9.47;26.76
59168;BME280;44948;55.046;73.266;2023-04-20T08:55:52;101671.50;;;9.63;26.24
59168;BME280;44948;55.046;73.266;2023-04-20T08:58:57;101671.53;;;9.43;26.47
59168;BME280;44948;55.046;73.266;2023-04-20T09:02:10;60074.63;;;-145.93;100.00
59168;BME280;44948;55.046;73.266;2023-04-20T09:05:13;101662.09;;;9.39;26.03
59168;BME280;44948;55.046;73.266;2023-04-20T09:08:37;101662.09;;;9.39;26.03
59168;BME280;44948;55.046;73.266;2023-04-20T09:11:39;101655.34;;;9.13;26.90
59168;BME280;44948;55.046;73.266;2023-04-20T09:14:46;101657.75;;;9.38;27.58
59168;BME280;44948;55.046;73.266;2023-04-20T09:17:49;101658.44;;;9.43;26.56
59168;BME280;44948;55.046;73.266;2023-04-20T09:20:51;101655.91;;;9.60;27.06
59168;BME280;44948;55.046;73.266;2023-04-20T09:23:58;101643.22;;;9.51;26.35
59168;BME280;44948;55.046;73.266;2023-04-20T09:27:12;101637.38;;;9.26;26.69
59168;BME280;44948;55.046;73.266;2023-04-20T09:30:15;101646.09;;;9.04;26.92
59168;BME280;44948;55.046;73.266;2023-04-20T09:33:18;101647.13;;;9.20;27.32
59168;BME280;44948;55.046;73.266;2023-04-20T09:36:36;101648.97;;;9.18;26.97
59168;BME280;44948;55.046;73.266;2023-04-20T09:39:42;101625.56;;;9.36;27.79
59168;BME280;44948;55.046;73.266;2023-04-20T09:42:48;101625.59;;;9.73;27.70
59168;BME280;44948;55.046;73.266;2023-04-20T09:45:52;101619.81;;;9.67;27.45
59168;BME280;44948;55.046;73.266;2023-04-20T09:48:55;101615.19;;;9.72;27.68
59168;BME280;44948;55.046;73.266;2023-04-20T09:52:02;101616.53;;;9.43;28.18
59168;BME280;44948;55.046;73.266;2023-04-20T09:55:07;101623.59;;;9.41;28.38
59168;BME280;44948;55.046;73.266;2023-04-20T09:58:11;101610.56;;;9.19;29.19
59168;BME280;44948;55.046;73.266;2023-04-20T10:01:14;101626.72;;;9.49;29.18
59168;BME280;44948;55.046;73.266;2023-04-20T10:04:17;101615.56;;;9.64;28.36
59168;BME280;44948;55.046;73.266;2023-04-20T10:07:29;101613.34;;;9.55;28.82
59168;BME280;44948;55.046;73.266;2023-04-20T10:10:45;101605.63;;;9.52;28.48
59168;BME280;44948;55.046;73.266;2023-04-20T10:13:47;101611.69;;;9.34;27.78
59168;BME280;44948;55.046;73.266;2023-04-20T10:17:00;101604.41;;;9.20;27.73
59168;BME280;44948;55.046;73.266;2023-04-20T10:20:21;101602.78;;;9.38;27.58
59168;BME280;44948;55.046;73.266;2023-04-20T10:23:28;101607.16;;;9.37;27.54
59168;BME280;44948;55.046;73.266;2023-04-20T10:26:42;101602.59;;;9.61;26.68
59168;BME280;44948;55.046;73.266;2023-04-20T10:29:46;101578.50;;;9.53;27.25
59168;BME280;44948;55.046;73.266;2023-04-20T10:32:49;101585.28;;;9.59;27.42
59168;BME280;44948;55.046;73.266;2023-04-20T10:35:53;101576.50;;;9.39;27.79
59168;BME280;44948;55.046;73.266;2023-04-20T10:38:57;101585.78;;;9.28;27.88
59168;BME280;44948;55.046;73.266;2023-04-20T10:41:59;101583.88;;;9.11;28.59
59168;BME280;44948;55.046;73.266;2023-04-20T10:45:10;101582.44;;;9.04;28.48
59168;BME280;44948;55.046;73.266;2023-04-20T10:48:22;101574.59;;;9.24;28.28
59168;BME280;44948;55.046;73.266;2023-04-20T10:51:25;101581.69;;;9.20;28.64
59168;BME280;44948;55.046;73.266;2023-04-20T10:54:36;101578.03;;;9.45;28.23
59168;BME280;44948;55.046;73.266;2023-04-20T10:57:43;101574.34;;;9.68;28.34
59168;BME280;44948;55.046;73.266;2023-04-20T11:00:46;101573.81;;;9.02;28.23
59168;BME280;44948;55.046;73.266;2023-04-20T11:04:03;101569.94;;;9.31;27.97
59168;BME280;44948;55.046;73.266;2023-04-20T11:07:07;101560.91;;;9.75;27.92
59168;BME280;44948;55.046;73.266;2023-04-20T11:10:10;101560.69;;;9.61;27.61
59168;BME280;44948;55.046;73.266;2023-04-20T11:13:20;101561.88;;;9.54;27.31
59168;BME280;44948;55.046;73.266;2023-04-20T11:16:23;101556.56;;;9.37;28.13
59168;BME280;44948;55.046;73.266;2023-04-20T11:22:33;101556.63;;;9.73;27.59
59168;BME280;44948;55.046;73.266;2023-04-20T11:25:35;101550.75;;;9.87;27.95
59168;BME280;44948;55.046;73.266;2023-04-20T11:28:37;101552.56;;;10.03;27.53
59168;BME280;44948;55.046;73.266;2023-04-20T11:31:40;101548.59;;;9.59;26.61
59168;BME280;44948;55.046;73.266;2023-04-20T11:34:42;101554.38;;;9.46;26.75
59168;BME280;44948;55.046;73.266;2023-04-20T11:37:46;101553.72;;;9.22;26.96
59168;BME280;44948;55.046;73.266;2023-04-20T11:40:49;101541.16;;;9.31;27.16
59168;BME280;44948;55.046;73.266;2023-04-20T11:43:52;101535.34;;;9.43;26.76
59168;BME280;44948;55.046;73.266;2023-04-20T11:46:55;101535.47;;;9.77;26.74
59168;BME280;44948;55.046;73.266;2023-04-20T11:49:58;101523.28;;;9.58;26.30
59168;BME280;44948;55.046;73.266;2023-04-20T11:53:00;101528.41;;;9.42;26.99
59168;BME280;44948;55.046;73.266;2023-04-20T11:56:03;101519.19;;;9.71;27.69
59168;BME280;44948;55.046;73.266;2023-04-20T11:59:07;101514.16;;;9.66;27.15
59168;BME280;44948;55.046;73.266;2023-04-20T12:02:14;101527.75;;;9.55;26.87
59168;BME280;44948;55.046;73.266;2023-04-20T12:05:19;101519.91;;;9.37;27.32
59168;BME280;44948;55.046;73.266;2023-04-20T12:08:22;101525.44;;;9.49;27.21
59168;BME280;44948;55.046;73.266;2023-04-20T12:11:26;101514.53;;;9.40;27.81
59168;BME280;44948;55.046;73.266;2023-04-20T12:14:29;101515.97;;;9.08;28.07
59168;BME280;44948;55.046;73.266;2023-04-20T12:17:31;101517.06;;;9.02;28.48
59168;BME280;44948;55.046;73.266;2023-04-20T12:20:34;101514.53;;;9.01;27.58
59168;BME280;44948;55.046;73.266;2023-04-20T12:23:36;101517.63;;;8.90;28.06
59168;BME280;44948;55.046;73.266;2023-04-20T12:26:38;101511.84;;;9.02;27.64
59168;BME280;44948;55.046;73.266;2023-04-20T12:29:41;101497.59;;;9.09;28.07
59168;BME280;44948;55.046;73.266;2023-04-20T12:32:43;101509.91;;;8.87;28.36
59168;BME280;44948;55.046;73.266;2023-04-20T12:35:46;101499.78;;;8.79;28.21
59168;BME280;44948;55.046;73.266;2023-04-20T12:38:50;60074.63;;;-145.93;100.00
59168;BME280;44948;55.046;73.266;2023-04-20T12:41:56;101507.44;;;8.84;27.89
59168;BME280;44948;55.046;73.266;2023-04-20T12:44:59;101501.38;;;9.02;27.97
59168;BME280;44948;55.046;73.266;2023-04-20T12:48:06;101506.13;;;9.33;27.69
59168;BME280;44948;55.046;73.266;2023-04-20T12:51:09;101501.16;;;9.27;27.58
59168;BME280;44948;55.046;73.266;2023-04-20T12:54:11;60074.63;;;9.10;100.00
59168;BME280;44948;55.046;73.266;2023-04-20T12:57:14;101509.22;;;9.22;27.68
59168;BME280;44948;55.046;73.266;2023-04-20T13:00:18;101499.88;;;9.36;27.66
59168;BME280;44948;55.046;73.266;2023-04-20T13:03:25;101500.19;;;9.30;27.79
59168;BME280;44948;55.046;73.266;2023-04-20T13:06:28;101490.50;;;9.11;27.82
59168;BME280;44948;55.046;73.266;2023-04-20T13:09:35;101495.09;;;9.27;27.98
59168;BME280;44948;55.046;73.266;2023-04-20T13:12:37;101492.66;;;9.22;27.75
59168;BME280;44948;55.046;73.266;2023-04-20T13:15:52;101489.06;;;9.04;27.73
59168;BME280;44948;55.046;73.266;2023-04-20T13:18:55;101485.53;;;9.05;27.80
59168;BME280;44948;55.046;73.266;2023-04-20T13:22:01;60074.63;;;-145.93;100.00
59168;BME280;44948;55.046;73.266;2023-04-20T13:25:05;101489.16;;;8.43;28.18
59168;BME280;44948;55.046;73.266;2023-04-20T13:28:07;101483.28;;;8.58;28.22
59168;BME280;44948;55.046;73.266;2023-04-20T13:31:10;101477.69;;;8.66;28.21
59168;BME280;44948;55.046;73.266;2023-04-20T13:34:12;101478.63;;;8.65;28.37
59168;BME280;44948;55.046;73.266;2023-04-20T13:37:15;101476.34;;;8.57;27.93
59168;BME280;44948;55.046;73.266;2023-04-20T13:40:18;101477.66;;;8.47;28.48
59168;BME280;44948;55.046;73.266;2023-04-20T13:43:20;101468.81;;;8.29;28.44
59168;BME280;44948;55.046;73.266;2023-04-20T13:46:23;101471.75;;;8.22;28.92
59168;BME280;44948;55.046;73.266;2023-04-20T13:49:36;60074.63;;;-145.93;100.00
59168;BME280;44948;55.046;73.266;2023-04-20T13:52:38;60074.63;;;-145.93;100.00
59168;BME280;44948;55.046;73.266;2023-04-20T13:55:51;60074.63;;;-145.93;100.00
59168;BME280;44948;55.046;73.266;2023-04-20T13:58:53;60074.63;;;-145.93;100.00
59168;BME280;44948;55.046;73.266;2023-04-20T14:01:55;60074.63;;;-145.93;100.00
59168;BME280;44948;55.046;73.266;2023-04-20T14:05:03;60074.63;;;-145.93;100.00
59168;BME280;44948;55.046;73.266;2023-04-20T14:08:07;60074.63;;;-145.93;100.00
59168;BME280;44948;55.046;73.266;2023-04-20T14:11:09;60074.63;;;-145.93;100.00
59168;BME280;44948;55.046;73.266;2023-04-20T14:14:12;60074.63;;;-145.93;100.00
59168;BME280;44948;55.046;73.266;2023-04-20T14:17:15;60074.63;;;-145.93;100.00
59168;BME280;44948;55.046;73.266;2023-04-20T14:20:27;60074.63;;;-145.93;100.00
59168;BME280;44948;55.046;73.266;2023-04-20T14:23:30;60074.63;;;-145.93;100.00
59168;BME280;44948;55.046;73.266;2023-04-20T14:26:42;60074.63;;;-145.93;100.00
59168;BME280;44948;55.046;73.266;2023-04-20T14:29:44;60074.63;;;-145.93;100.00
59168;BME280;44948;55.046;73.266;2023-04-20T14:32:54;60074.63;;;-145.93;100.00
59168;BME280;44948;55.046;73.266;2023-04-20T14:35:57;60074.63;;;-145.93;100.00
59168;BME280;44948;55.046;73.266;2023-04-20T14:39:00;101485.22;;;5.45;32.88
59168;BME280;44948;55.046;73.266;2023-04-20T14:42:02;101484.81;;;5.29;32.89
59168;BME280;44948;55.046;73.266;2023-04-20T14:45:05;101492.06;;;5.18;33.30
59168;BME280;44948;55.046;73.266;2023-04-20T14:48:08;101492.06;;;5.18;33.30
59168;BME280;44948;55.046;73.266;2023-04-20T14:51:11;101485.50;;;5.04;33.30
59168;BME280;44948;55.046;73.266;2023-04-20T14:54:14;101490.19;;;4.93;33.12
59168;BME280;44948;55.046;73.266;2023-04-20T14:57:18;101484.44;;;4.81;33.83
59168;BME280;44948;55.046;73.266;2023-04-20T15:00:24;101485.59;;;4.69;33.75
59168;BME280;44948;55.046;73.266;2023-04-20T15:03:29;101487.50;;;4.64;33.83
59168;BME280;44948;55.046;73.266;2023-04-20T15:06:31;101487.66;;;4.58;33.91
59168;BME280;44948;55.046;73.266;2023-04-20T15:09:35;101480.94;;;4.49;34.08
59168;BME280;44948;55.046;73.266;2023-04-20T15:12:43;101476.06;;;4.38;34.29
59168;BME280;44948;55.046;73.266;2023-04-20T15:15:52;101476.19;;;4.32;34.47
59168;BME280;44948;55.046;73.266;2023-04-20T15:18:54;101469.47;;;4.25;34.33
59168;BME280;44948;55.046;73.266;2023-04-20T15:22:07;101481.03;;;4.12;34.64
59168;BME280;44948;55.046;73.266;2023-04-20T15:25:10;101469.13;;;4.03;34.60
59168;BME280;44948;55.046;73.266;2023-04-20T15:28:25;101476.31;;;3.94;34.61
59168;BME280;44948;55.046;73.266;2023-04-20T15:31:37;101478.13;;;3.90;34.89
59168;BME280;44948;55.046;73.266;2023-04-20T15:34:41;101471.31;;;3.84;35.01
59168;BME280;44948;55.046;73.266;2023-04-20T15:37:44;101468.78;;;3.81;35.16
59168;BME280;44948;55.046;73.266;2023-04-20T15:40:47;101481.00;;;3.78;35.33
59168;BME280;44948;55.046;73.266;2023-04-20T15:43:49;101476.81;;;3.72;35.47
59168;BME280;44948;55.046;73.266;2023-04-20T15:47:02;101457.34;;;3.53;35.62
59168;BME280;44948;55.046;73.266;2023-04-20T15:50:16;101467.88;;;3.47;35.61
59168;BME280;44948;55.046;73.266;2023-04-20T15:53:19;101447.72;;;3.19;35.87
59168;BME280;44948;55.046;73.266;2023-04-20T15:56:23;101466.56;;;3.28;36.19
59168;BME280;44948;55.046;73.266;2023-04-20T15:59:25;101458.22;;;3.13;36.01
59168;BME280;44948;55.046;73.266;2023-04-20T16:02:28;101465.38;;;3.02;36.49
59168;BME280;44948;55.046;73.266;2023-04-20T16:05:30;101462.16;;;2.91;36.64